Time;durP1;ratioP1;P1;durP2;ratioP2;P2;SDS_P1;SDS_P2;PMS_P1;PMS_P2;Temp;Humidity;BMP_temperature;BMP_pressure;BME280_temperature;BME280_humidity;BME280_pressure;Samples;Min_cycle;Max_cycle;Signal;HPM_P1;HPM_P2
2023/05/08 00:01:31;;;;;;;1.67;0.45;;;20.00;75.00;;;;;;6215169;23;20079;-71
2023/05/08 00:03:57;;;;;;;1.35;0.57;;;20.00;74.90;;;;;;6216593;23;20064;-71
2023/05/08 00:06:23;;;;;;;1.75;0.50;;;20.00;75.00;;;;;;6189805;23;20023;-72
2023/05/08 00:08:48;;;;;;;0.38;0.38;;;20.00;75.00;;;;;;6215122;23;20001;-72
2023/05/08 00:11:14;;;;;;;2.28;0.70;;;20.00;75.10;;;;;;6214743;23;20005;-72
2023/05/08 00:13:40;;;;;;;2.55;0.50;;;20.00;75.00;;;;;;6216252;23;20076;-72
2023/05/08 00:16:10;;;;;;;0.65;0.55;;;20.00;75.00;;;;;;6216462;23;20001;-72
2023/05/08 00:18:37;;;;;;;1.33;0.40;;;19.90;75.00;;;;;;6216398;23;20012;-72
2023/05/08 00:21:03;;;;;;;0.63;0.43;;;20.00;75.10;;;;;;6216074;23;20003;-72
2023/05/08 00:23:29;;;;;;;1.13;0.35;;;20.00;75.20;;;;;;6214884;23;19997;-72
2023/05/08 00:25:55;;;;;;;0.68;0.50;;;19.90;75.20;;;;;;6216130;23;20050;-72
2023/05/08 00:28:20;;;;;;;0.40;0.40;;;19.90;75.10;;;;;;6216169;23;20012;-72
2023/05/08 00:30:46;;;;;;;0.50;0.50;;;19.90;75.10;;;;;;6216120;23;20005;-72
2023/05/08 00:33:12;;;;;;;1.75;0.40;;;19.90;75.20;;;;;;6216008;23;20007;-72
2023/05/08 00:35:39;;;;;;;1.23;0.32;;;19.90;75.10;;;;;;6215780;23;20083;-72
2023/05/08 00:38:05;;;;;;;0.95;0.40;;;19.90;76.20;;;;;;6214718;23;20449;-72
2023/05/08 00:40:31;;;;;;;0.68;0.50;;;19.90;75.20;;;;;;6216157;23;20127;-72
2023/05/08 00:42:56;;;;;;;0.50;0.50;;;19.90;75.20;;;;;;6216218;23;20044;-72
2023/05/08 00:45:22;;;;;;;1.15;0.40;;;19.90;75.30;;;;;;6215953;23;20000;-72
2023/05/08 00:47:48;;;;;;;0.30;0.30;;;19.90;75.30;;;;;;6189476;23;20001;-72
2023/05/08 00:50:14;;;;;;;2.05;0.50;;;19.90;75.30;;;;;;6189355;23;20372;-72
2023/05/08 00:52:39;;;;;;;0.40;0.30;;;19.90;75.20;;;;;;6214599;23;20001;-72
2023/05/08 00:55:05;;;;;;;1.58;0.40;;;19.80;75.20;;;;;;6189180;23;19997;-71
2023/05/08 00:57:31;;;;;;;1.35;0.50;;;19.80;75.20;;;;;;6214523;23;20051;-71
2023/05/08 00:59:58;;;;;;;0.40;0.40;;;19.90;75.40;;;;;;6189381;23;20012;-71
2023/05/08 01:02:24;;;;;;;0.50;0.50;;;19.90;75.50;;;;;;6189829;23;20005;-71
2023/05/08 01:04:50;;;;;;;0.68;0.50;;;19.90;75.30;;;;;;6214012;23;19997;-71
2023/05/08 01:07:16;;;;;;;0.30;0.30;;;19.80;75.30;;;;;;6189750;23;20087;-71
2023/05/08 01:09:42;;;;;;;0.50;0.50;;;19.80;75.20;;;;;;6214371;23;20028;-71
2023/05/08 01:12:26;;;;;;;0.57;0.50;;;19.80;75.40;;;;;;6214272;23;20054;-71
2023/05/08 01:15:08;;;;;;;0.80;0.52;;;19.80;75.50;;;;;;6214609;23;20005;-72
2023/05/08 01:17:40;;;;;;;0.80;0.50;;;19.80;75.50;;;;;;6214276;23;20088;-72
2023/05/08 01:20:20;;;;;;;0.40;0.40;;;19.80;75.40;;;;;;6215641;23;20067;-72
2023/05/08 01:23:38;;;;;;;1.17;0.70;;;19.80;75.50;;;;;;6214376;23;20062;-72
2023/05/08 01:26:18;;;;;;;0.98;0.68;;;19.80;75.50;;;;;;6070828;23;20499;-71
2023/05/08 01:29:02;;;;;;;0.85;0.50;;;19.80;75.50;;;;;;6094586;23;20020;-72
2023/05/08 01:31:37;;;;;;;0.40;0.40;;;19.80;75.60;;;;;;6094726;23;20020;-71
2023/05/08 01:34:05;;;;;;;0.70;0.50;;;19.80;75.50;;;;;;6094534;23;20014;-72
2023/05/08 01:36:40;;;;;;;2.00;0.32;;;19.80;75.50;;;;;;6070856;23;20046;-72
2023/05/08 01:39:19;;;;;;;0.55;0.40;;;19.80;75.70;;;;;;6070618;23;20007;-72
2023/05/08 01:42:11;;;;;;;0.47;0.47;;;19.80;75.80;;;;;;6070505;23;20214;-72
2023/05/08 01:44:42;;;;;;;0.68;0.57;;;19.80;75.60;;;;;;6037141;23;20038;-72
2023/05/08 01:47:09;;;;;;;0.40;0.40;;;19.80;75.90;;;;;;6013459;23;20003;-72
2023/05/08 01:49:40;;;;;;;0.40;0.30;;;19.80;75.90;;;;;;6013167;23;20179;-71
2023/05/08 01:52:10;;;;;;;0.80;0.40;;;19.80;76.00;;;;;;6013290;23;20055;-72
2023/05/08 01:54:40;;;;;;;1.45;0.65;;;19.80;75.80;;;;;;6013399;23;20011;-72
2023/05/08 01:57:05;;;;;;;0.52;0.38;;;19.80;75.90;;;;;;6033517;23;20007;-71
2023/05/08 01:59:31;;;;;;;0.68;0.60;;;19.80;75.90;;;;;;6041785;23;20018;-72
2023/05/08 02:01:57;;;;;;;0.60;0.30;;;19.70;75.90;;;;;;6017908;23;20011;-71
2023/05/08 02:04:22;;;;;;;1.27;0.40;;;19.70;75.90;;;;;;6017906;23;20030;-72
2023/05/08 02:06:50;;;;;;;0.50;0.30;;;19.70;75.80;;;;;;6041598;23;20507;-72
2023/05/08 02:09:15;;;;;;;0.40;0.40;;;19.70;75.90;;;;;;6018175;23;20328;-72
2023/05/08 02:11:41;;;;;;;0.80;0.30;;;19.70;75.90;;;;;;6041554;23;20013;-72
2023/05/08 02:14:07;;;;;;;0.82;0.50;;;19.70;76.00;;;;;;6018012;23;20014;-71
2023/05/08 02:16:33;;;;;;;0.55;0.40;;;19.70;76.00;;;;;;6018005;23;20015;-71
2023/05/08 02:18:59;;;;;;;3.00;0.50;;;19.70;76.00;;;;;;6065161;23;20517;-72
2023/05/08 02:21:25;;;;;;;1.65;0.40;;;19.70;76.00;;;;;;6093947;23;20004;-72
2023/05/08 02:23:51;;;;;;;0.40;0.40;;;19.70;76.00;;;;;;6213797;23;20001;-71
2023/05/08 02:26:16;;;;;;;0.88;0.73;;;19.70;76.00;;;;;;6213931;23;20050;-71
2023/05/08 02:28:42;;;;;;;1.08;0.50;;;19.70;76.00;;;;;;6214040;23;20008;-72
2023/05/08 02:31:11;;;;;;;1.40;0.30;;;19.70;76.00;;;;;;6215070;23;20001;-71
2023/05/08 02:33:38;;;;;;;0.70;0.52;;;19.70;76.00;;;;;;6213904;23;20001;-72
2023/05/08 02:36:04;;;;;;;0.82;0.50;;;19.70;76.00;;;;;;6189040;23;20004;-71
2023/05/08 02:38:30;;;;;;;0.40;0.40;;;19.70;76.00;;;;;;6215046;23;20349;-71
2023/05/08 02:40:57;;;;;;;0.85;0.60;;;19.70;76.10;;;;;;6190850;23;20472;-71
2023/05/08 02:43:23;;;;;;;0.52;0.40;;;19.70;76.10;;;;;;6191004;23;20039;-71
2023/05/08 02:46:02;;;;;;;0.98;0.77;;;19.70;76.20;;;;;;6215747;23;19997;-71
2023/05/08 02:48:33;;;;;;;0.45;0.45;;;19.70;76.00;;;;;;6192320;23;20005;-71
2023/05/08 02:51:18;;;;;;;0.40;0.40;;;19.70;76.10;;;;;;6215852;23;20008;-71
2023/05/08 02:54:08;;;;;;;0.80;0.57;;;19.70;76.10;;;;;;6217340;23;20015;-72
2023/05/08 02:56:43;;;;;;;1.10;0.60;;;19.70;76.10;;;;;;6215624;23;20003;-71
2023/05/08 02:59:32;;;;;;;0.40;0.35;;;19.70;76.20;;;;;;6191644;23;20015;-72
2023/05/08 03:02:02;;;;;;;0.75;0.30;;;19.70;76.20;;;;;;6215393;23;20001;-71
2023/05/08 03:04:33;;;;;;;0.45;0.45;;;19.70;76.20;;;;;;6191448;23;20007;-71
2023/05/08 03:06:59;;;;;;;0.50;0.50;;;19.70;76.30;;;;;;6215483;23;20013;-72
2023/05/08 03:09:27;;;;;;;0.28;0.28;;;19.60;76.20;;;;;;6190741;23;20005;-72
2023/05/08 03:12:05;;;;;;;0.75;0.73;;;19.60;76.20;;;;;;6190776;23;20000;-71
2023/05/08 03:14:34;;;;;;;0.57;0.57;;;19.60;76.20;;;;;;6192308;23;20501;-72
2023/05/08 03:16:59;;;;;;;0.40;0.40;;;19.60;76.20;;;;;;6166069;23;20098;-71
2023/05/08 03:19:32;;;;;;;2.03;0.50;;;19.60;76.40;;;;;;6215529;23;20364;-71
2023/05/08 03:21:58;;;;;;;0.57;0.57;;;19.60;76.30;;;;;;6191041;23;20390;-72
2023/05/08 03:24:24;;;;;;;0.55;0.55;;;19.60;76.30;;;;;;6190500;23;20024;-72
2023/05/08 03:26:49;;;;;;;1.30;0.43;;;19.60;76.40;;;;;;6190643;23;19997;-72
2023/05/08 03:29:15;;;;;;;0.80;0.47;;;19.60;76.40;;;;;;6215167;23;20001;-71
2023/05/08 03:31:41;;;;;;;0.50;0.50;;;19.60;76.40;;;;;;6190596;23;20004;-71
2023/05/08 03:34:07;;;;;;;0.40;0.30;;;19.60;76.40;;;;;;6190470;23;20004;-72
2023/05/08 03:36:32;;;;;;;0.70;0.40;;;19.60;76.40;;;;;;6190317;23;20080;-72
2023/05/08 03:38:59;;;;;;;1.73;0.55;;;19.60;76.40;;;;;;6190197;23;20008;-71
2023/05/08 03:41:24;;;;;;;0.50;0.50;;;19.60;76.40;;;;;;6190687;23;20015;-72
2023/05/08 03:43:50;;;;;;;1.50;0.63;;;19.60;76.50;;;;;;6216313;23;20067;-72
2023/05/08 03:46:15;;;;;;;1.63;0.50;;;19.60;76.40;;;;;;6215454;23;19997;-72
2023/05/08 03:48:41;;;;;;;0.63;0.60;;;19.60;76.50;;;;;;6190185;23;20027;-72
2023/05/08 03:51:07;;;;;;;1.60;0.60;;;19.60;76.50;;;;;;6190158;23;20005;-72
2023/05/08 03:53:32;;;;;;;0.50;0.47;;;19.60;76.50;;;;;;6216870;23;20011;-72
2023/05/08 03:55:58;;;;;;;2.05;0.60;;;19.60;76.60;;;;;;6216434;23;20000;-72
2023/05/08 03:58:43;;;;;;;1.48;0.43;;;19.60;76.60;;;;;;6216426;23;20055;-71
2023/05/08 04:01:51;;;;;;;0.73;0.60;;;19.50;76.60;;;;;;6191292;23;20483;-71
2023/05/08 04:04:28;;;;;;;0.50;0.50;;;19.50;76.70;;;;;;6107773;23;20012;-71
2023/05/08 04:06:55;;;;;;;0.68;0.60;;;19.60;76.70;;;;;;6124667;23;20025;-71
2023/05/08 04:09:35;;;;;;;0.20;0.20;;;19.50;76.80;;;;;;6124935;23;20013;-71
2023/05/08 04:12:08;;;;;;;0.35;0.35;;;19.50;76.70;;;;;;6124627;23;20521;-71
2023/05/08 04:14:42;;;;;;;0.93;0.68;;;19.50;76.80;;;;;;6124366;23;20032;-71
2023/05/08 04:17:09;;;;;;;0.63;0.47;;;19.50;76.90;;;;;;6124432;23;20006;-71
2023/05/08 04:19:37;;;;;;;0.40;0.40;;;19.50;76.90;;;;;;6124694;23;20119;-71
2023/05/08 04:22:07;;;;;;;1.77;0.50;;;19.50;76.90;;;;;;6124399;23;20439;-71
2023/05/08 04:24:34;;;;;;;0.57;0.50;;;19.50;76.90;;;;;;6124581;23;20028;-72
2023/05/08 04:27:00;;;;;;;0.82;0.50;;;19.50;76.90;;;;;;6124415;23;20073;-72
2023/05/08 04:29:26;;;;;;;0.50;0.50;;;19.50;77.00;;;;;;6124427;23;20080;-72
2023/05/08 04:31:51;;;;;;;2.03;0.68;;;19.50;77.00;;;;;;6124347;23;20145;-72
2023/05/08 04:34:17;;;;;;;1.02;0.50;;;19.50;77.00;;;;;;6142258;23;20008;-72
2023/05/08 04:36:42;;;;;;;0.47;0.40;;;19.50;77.00;;;;;;6215025;23;20004;-72
2023/05/08 04:39:08;;;;;;;0.57;0.40;;;19.50;77.00;;;;;;6189620;23;20059;-71
2023/05/08 04:41:34;;;;;;;0.57;0.50;;;19.50;77.10;;;;;;6216039;23;20004;-71
2023/05/08 04:44:00;;;;;;;0.70;0.40;;;19.50;77.10;;;;;;6216358;23;20004;-71
2023/05/08 04:46:26;;;;;;;1.05;0.50;;;19.50;77.10;;;;;;6189966;23;20008;-71
2023/05/08 04:48:51;;;;;;;0.52;0.50;;;19.50;77.20;;;;;;6216283;23;20072;-71
2023/05/08 04:51:17;;;;;;;0.40;0.40;;;19.50;77.20;;;;;;6214660;23;20001;-71
2023/05/08 04:53:42;;;;;;;1.90;0.40;;;19.50;77.20;;;;;;6214318;23;20004;-71
2023/05/08 04:56:08;;;;;;;0.57;0.55;;;19.50;77.20;;;;;;6216132;23;20054;-71
2023/05/08 04:58:34;;;;;;;2.28;0.50;;;19.50;77.20;;;;;;6214417;23;20009;-71
2023/05/08 05:01:03;;;;;;;0.88;0.50;;;19.50;77.20;;;;;;6215815;23;20001;-71
2023/05/08 05:03:28;;;;;;;2.10;0.50;;;19.50;77.30;;;;;;6214709;23;20007;-71
2023/05/08 05:06:00;;;;;;;0.40;0.40;;;19.50;77.30;;;;;;6215748;23;20091;-71
2023/05/08 05:08:26;;;;;;;1.17;0.50;;;19.50;77.30;;;;;;6214413;23;20511;-71
2023/05/08 05:10:51;;;;;;;0.40;0.40;;;19.50;77.40;;;;;;6214287;23;20005;-71
2023/05/08 05:13:18;;;;;;;0.40;0.40;;;19.40;77.30;;;;;;6215778;23;20032;-71
2023/05/08 05:15:44;;;;;;;0.45;0.45;;;19.50;77.30;;;;;;6215896;23;20468;-71
2023/05/08 05:18:10;;;;;;;0.82;0.52;;;19.50;77.50;;;;;;6189265;23;20001;-71
2023/05/08 05:20:36;;;;;;;1.08;0.40;;;19.40;77.40;;;;;;6215805;23;19996;-71
2023/05/08 05:23:02;;;;;;;1.38;0.50;;;19.40;77.40;;;;;;6189157;23;20385;-71
2023/05/08 05:25:27;;;;;;;0.50;0.50;;;19.50;77.40;;;;;;6214321;23;19997;-71
2023/05/08 05:27:53;;;;;;;1.13;0.50;;;19.40;77.40;;;;;;6214445;23;20000;-71
2023/05/08 05:30:18;;;;;;;0.40;0.40;;;19.40;77.40;;;;;;6215733;23;20008;-71
2023/05/08 05:32:44;;;;;;;0.40;0.40;;;19.40;77.40;;;;;;6214528;23;20330;-71
2023/05/08 05:35:10;;;;;;;0.47;0.40;;;19.50;77.50;;;;;;6215591;23;20471;-71
2023/05/08 05:37:36;;;;;;;0.30;0.30;;;19.40;77.40;;;;;;6214183;23;20005;-71
2023/05/08 05:40:02;;;;;;;0.90;0.30;;;19.40;77.60;;;;;;6213971;23;20386;-71
2023/05/08 05:42:27;;;;;;;1.90;0.40;;;19.40;77.50;;;;;;6215968;23;20011;-71
2023/05/08 05:44:55;;;;;;;1.25;0.70;;;19.40;77.50;;;;;;6214309;23;20072;-71
2023/05/08 05:47:21;;;;;;;0.57;0.40;;;19.40;77.50;;;;;;6215742;23;20001;-71
2023/05/08 05:49:46;;;;;;;0.73;0.50;;;19.40;77.50;;;;;;6215712;23;20001;-71
2023/05/08 05:52:13;;;;;;;0.60;0.60;;;19.40;77.40;;;;;;6215653;23;19997;-71
2023/05/08 05:54:38;;;;;;;0.40;0.40;;;19.40;77.40;;;;;;6213845;23;19996;-71
2023/05/08 05:57:04;;;;;;;0.40;0.40;;;19.40;77.50;;;;;;6214010;23;20028;-71
2023/05/08 05:59:30;;;;;;;0.57;0.50;;;19.40;77.50;;;;;;6213961;23;20004;-71
2023/05/08 06:01:55;;;;;;;0.77;0.40;;;19.40;78.50;;;;;;6214123;23;20001;-72
2023/05/08 06:04:21;;;;;;;0.40;0.40;;;19.40;77.50;;;;;;6213886;23;20024;-71
2023/05/08 06:06:47;;;;;;;1.85;0.50;;;19.40;77.50;;;;;;6215353;23;20035;-71
2023/05/08 06:09:12;;;;;;;2.15;0.50;;;19.40;77.60;;;;;;6188591;23;20345;-72
2023/05/08 06:11:38;;;;;;;1.35;0.75;;;19.40;77.50;;;;;;6213843;23;20001;-71
2023/05/08 06:14:04;;;;;;;0.55;0.55;;;19.40;77.50;;;;;;6213434;23;20007;-71
2023/05/08 06:16:29;;;;;;;0.40;0.40;;;19.40;77.50;;;;;;6213804;23;20005;-71
2023/05/08 06:18:55;;;;;;;0.75;0.38;;;19.40;77.50;;;;;;6214830;23;20079;-72
2023/05/08 06:21:21;;;;;;;0.60;0.40;;;19.30;77.40;;;;;;6213536;23;20072;-71
2023/05/08 06:23:46;;;;;;;2.60;0.50;;;19.40;77.50;;;;;;6215150;23;20429;-71
2023/05/08 06:26:12;;;;;;;4.25;0.50;;;19.40;77.50;;;;;;6215210;23;20001;-71
2023/05/08 06:28:37;;;;;;;0.50;0.50;;;19.40;77.40;;;;;;6215343;23;20004;-71
2023/05/08 06:31:03;;;;;;;0.47;0.35;;;19.40;77.40;;;;;;6215318;23;20004;-71
2023/05/08 06:33:29;;;;;;;1.17;0.40;;;19.30;77.30;;;;;;6215523;23;20346;-72
2023/05/08 06:35:55;;;;;;;0.45;0.40;;;19.30;77.50;;;;;;6215328;23;20476;-72
2023/05/08 06:38:20;;;;;;;0.55;0.40;;;19.40;77.50;;;;;;6213452;23;20004;-72
2023/05/08 06:40:46;;;;;;;1.17;0.50;;;19.30;77.50;;;;;;6215280;23;20364;-72
2023/05/08 06:43:12;;;;;;;4.20;0.50;;;19.40;77.50;;;;;;6213582;23;20426;-72
2023/05/08 06:45:38;;;;;;;1.10;0.55;;;19.30;77.50;;;;;;6215423;23;19997;-72
2023/05/08 06:48:04;;;;;;;1.52;0.40;;;19.30;77.40;;;;;;6214395;23;20076;-72
2023/05/08 06:50:30;;;;;;;2.65;0.52;;;19.40;77.50;;;;;;6213569;23;20066;-72
2023/05/08 06:52:56;;;;;;;2.38;0.52;;;19.30;77.50;;;;;;6214864;23;20044;-72
2023/05/08 06:55:21;;;;;;;0.63;0.40;;;19.30;77.50;;;;;;6215254;23;20365;-72
2023/05/08 06:57:47;;;;;;;0.45;0.45;;;19.30;77.50;;;;;;6214978;23;20084;-72
2023/05/08 07:00:13;;;;;;;2.08;0.60;;;19.40;77.50;;;;;;6213537;23;20008;-71
2023/05/08 07:02:38;;;;;;;1.27;0.40;;;19.30;77.50;;;;;;6215035;23;20004;-72
2023/05/08 07:05:05;;;;;;;0.50;0.30;;;19.30;77.50;;;;;;6214963;23;20005;-72
2023/05/08 07:07:31;;;;;;;0.50;0.50;;;19.30;77.50;;;;;;6213290;23;20409;-71
2023/05/08 07:09:56;;;;;;;1.25;0.60;;;19.30;77.50;;;;;;6212582;23;20000;-72
2023/05/08 07:12:22;;;;;;;0.90;0.40;;;19.40;77.50;;;;;;6214293;23;20441;-71
2023/05/08 07:14:47;;;;;;;0.60;0.60;;;19.30;77.50;;;;;;6214583;23;20437;-71
2023/05/08 07:17:13;;;;;;;0.77;0.55;;;19.30;77.50;;;;;;6214318;23;19996;-71
2023/05/08 07:19:39;;;;;;;0.80;0.30;;;19.30;77.50;;;;;;6212924;23;20007;-71
2023/05/08 07:22:04;;;;;;;0.50;0.32;;;19.30;77.50;;;;;;6212639;23;20012;-71
2023/05/08 07:24:31;;;;;;;0.82;0.50;;;19.30;77.60;;;;;;6215282;23;20436;-71
2023/05/08 07:26:58;;;;;;;0.35;0.32;;;19.30;77.50;;;;;;6216464;23;20084;-71
2023/05/08 07:29:24;;;;;;;0.30;0.30;;;19.30;77.60;;;;;;6214721;23;20444;-72
2023/05/08 07:31:50;;;;;;;0.50;0.40;;;19.30;77.50;;;;;;6214935;23;20005;-71
2023/05/08 07:34:16;;;;;;;0.55;0.40;;;19.30;77.60;;;;;;6216282;23;20007;-71
2023/05/08 07:36:42;;;;;;;1.45;0.68;;;19.30;77.60;;;;;;6214520;23;20009;-71
2023/05/08 07:39:08;;;;;;;0.30;0.30;;;19.30;77.60;;;;;;6189688;23;20054;-71
2023/05/08 07:41:35;;;;;;;0.65;0.25;;;19.30;77.60;;;;;;6216112;23;20001;-72
2023/05/08 07:44:02;;;;;;;0.68;0.45;;;19.30;77.60;;;;;;6214857;23;20001;-72
2023/05/08 07:46:27;;;;;;;0.85;0.50;;;19.30;77.60;;;;;;6216066;23;20001;-72
2023/05/08 07:48:53;;;;;;;1.38;0.35;;;19.30;77.60;;;;;;6216167;23;20009;-72
2023/05/08 07:51:19;;;;;;;0.60;0.50;;;19.30;77.70;;;;;;6215805;23;20004;-71
2023/05/08 07:53:44;;;;;;;4.28;0.88;;;19.30;77.70;;;;;;6215962;23;19996;-72
2023/05/08 07:56:10;;;;;;;0.30;0.30;;;19.30;77.70;;;;;;6216131;23;20027;-72
2023/05/08 07:58:36;;;;;;;4.13;0.40;;;19.30;78.70;;;;;;6214343;23;20005;-72
2023/05/08 08:01:02;;;;;;;0.30;0.30;;;19.30;77.80;;;;;;6214374;23;20108;-72
2023/05/08 08:03:27;;;;;;;0.35;0.35;;;19.30;77.80;;;;;;6214704;23;20084;-71
2023/05/08 08:05:54;;;;;;;0.80;0.50;;;19.30;77.70;;;;;;6214082;23;20040;-71
2023/05/08 08:08:20;;;;;;;3.55;1.25;;;19.30;77.80;;;;;;6215966;23;20012;-71
2023/05/08 08:10:45;;;;;;;0.95;0.50;;;19.30;77.80;;;;;;6189428;23;20008;-71
2023/05/08 08:13:11;;;;;;;0.93;0.40;;;19.30;77.80;;;;;;6215804;23;20008;-72
2023/05/08 08:15:37;;;;;;;0.40;0.38;;;19.30;77.70;;;;;;6214419;23;20023;-71
2023/05/08 08:18:02;;;;;;;1.85;0.43;;;19.30;77.80;;;;;;6215772;23;20004;-71
2023/05/08 08:20:28;;;;;;;0.50;0.50;;;19.30;77.80;;;;;;6215550;23;20000;-71
2023/05/08 08:22:53;;;;;;;0.80;0.50;;;19.30;77.80;;;;;;6215710;23;20008;-72
2023/05/08 08:25:19;;;;;;;1.45;0.47;;;19.30;77.80;;;;;;6215806;23;20051;-72
2023/05/08 08:27:45;;;;;;;0.50;0.30;;;19.30;77.80;;;;;;6214330;23;20070;-71
2023/05/08 08:30:11;;;;;;;0.60;0.38;;;19.30;77.80;;;;;;6215725;23;20344;-72
2023/05/08 08:32:36;;;;;;;1.10;0.50;;;19.20;77.80;;;;;;6214067;23;20008;-72
2023/05/08 08:35:02;;;;;;;1.08;0.50;;;19.20;78.70;;;;;;6213535;23;20000;-72
2023/05/08 08:37:28;;;;;;;0.50;0.50;;;19.20;77.80;;;;;;6215332;23;20012;-71
2023/05/08 08:39:54;;;;;;;0.68;0.30;;;19.20;77.80;;;;;;6214188;23;20001;-72
2023/05/08 08:42:19;;;;;;;1.67;0.40;;;19.30;77.90;;;;;;6215551;23;20340;-72
2023/05/08 08:44:45;;;;;;;0.70;0.50;;;19.20;77.80;;;;;;6214234;23;20005;-72
2023/05/08 08:47:11;;;;;;;1.38;0.40;;;19.30;78.00;;;;;;6215253;23;20341;-71
2023/05/08 08:49:41;;;;;;;0.30;0.30;;;19.30;77.90;;;;;;6213649;23;20332;-71
2023/05/08 08:52:42;;;;;;;0.73;0.50;;;19.20;77.90;;;;;;6189394;23;20440;-71
2023/05/08 08:55:10;;;;;;;1.45;0.45;;;19.30;77.90;;;;;;6094103;23;20018;-72
2023/05/08 08:57:36;;;;;;;0.55;0.35;;;19.30;77.90;;;;;;6070153;23;20006;-71
2023/05/08 09:00:05;;;;;;;0.80;0.40;;;19.20;78.00;;;;;;6070180;23;20013;-71
2023/05/08 09:02:31;;;;;;;1.05;0.32;;;19.20;77.90;;;;;;6093905;23;20003;-71
2023/05/08 09:04:57;;;;;;;0.38;0.38;;;19.20;76.10;;;;;;6070244;23;20482;-71
2023/05/08 09:07:23;;;;;;;0.73;0.50;;;19.20;75.80;;;;;;6070235;23;20014;-71
2023/05/08 09:09:49;;;;;;;1.35;0.20;;;19.20;75.70;;;;;;6070183;23;20006;-71
2023/05/08 09:12:14;;;;;;;0.47;0.40;;;19.20;75.90;;;;;;6070329;23;20042;-71
2023/05/08 09:14:40;;;;;;;0.35;0.32;;;19.20;75.90;;;;;;6069943;23;20007;-71
2023/05/08 09:17:06;;;;;;;1.50;0.50;;;19.10;75.90;;;;;;6070020;23;20010;-71
2023/05/08 09:19:31;;;;;;;1.13;0.50;;;19.10;75.70;;;;;;6093880;23;20013;-71
2023/05/08 09:22:00;;;;;;;0.82;0.32;;;19.10;75.60;;;;;;6068954;23;20043;-71
2023/05/08 09:24:57;;;;;;;1.75;0.50;;;19.10;76.50;;;;;;6091972;23;20006;-76
2023/05/08 09:27:27;;;;;;;0.50;0.50;;;19.20;75.40;;;;;;6094345;23;20545;-75
2023/05/08 09:30:09;;;;;;;1.02;0.40;;;19.30;75.60;;;;;;6094579;23;20009;-76
2023/05/08 09:32:36;;;;;;;1.35;0.50;;;19.40;74.20;;;;;;6213361;23;20433;-77
2023/05/08 09:35:02;;;;;;;2.35;0.30;;;19.50;73.90;;;;;;6215633;23;20441;-76
2023/05/08 09:37:28;;;;;;;0.40;0.35;;;19.50;73.70;;;;;;6215655;23;20008;-75
2023/05/08 09:39:58;;;;;;;0.70;0.30;;;19.60;73.60;;;;;;6215963;23;20004;-75
2023/05/08 09:42:25;;;;;;;1.15;0.40;;;19.70;73.50;;;;;;6213785;23;19996;-76
2023/05/08 09:44:51;;;;;;;0.47;0.43;;;19.70;73.30;;;;;;6189185;23;20127;-75
2023/05/08 09:47:21;;;;;;;0.40;0.30;;;19.70;73.30;;;;;;6213825;23;20005;-75
2023/05/08 09:50:01;;;;;;;0.32;0.20;;;19.70;73.10;;;;;;6213980;23;20055;-75
2023/05/08 09:52:27;;;;;;;0.35;0.35;;;19.80;73.10;;;;;;6215679;23;20009;-75
2023/05/08 09:55:00;;;;;;;0.45;0.40;;;19.70;72.80;;;;;;6214212;23;20000;-75
2023/05/08 09:57:30;;;;;;;1.00;0.50;;;19.80;72.80;;;;;;6215415;23;20004;-75
2023/05/08 10:00:09;;;;;;;0.57;0.47;;;19.80;72.70;;;;;;6215442;23;20023;-75
2023/05/08 10:02:36;;;;;;;0.47;0.38;;;19.80;72.50;;;;;;6213772;23;20008;-75
2023/05/08 10:05:03;;;;;;;0.40;0.40;;;19.90;72.30;;;;;;6215322;23;20005;-74
2023/05/08 10:07:33;;;;;;;1.48;0.40;;;19.90;72.40;;;;;;6214139;23;20005;-75
2023/05/08 10:10:04;;;;;;;0.73;0.32;;;20.00;72.20;;;;;;6215704;23;20127;-74
2023/05/08 10:12:30;;;;;;;0.60;0.30;;;20.00;72.20;;;;;;6213945;23;20028;-74
2023/05/08 10:14:56;;;;;;;0.65;0.50;;;20.00;72.00;;;;;;6188602;23;20059;-74
2023/05/08 10:18:04;;;;;;;0.60;0.40;;;20.00;71.90;;;;;;6214028;23;20005;-75
2023/05/08 10:20:30;;;;;;;0.60;0.50;;;20.10;71.80;;;;;;6213739;23;20314;-75
2023/05/08 10:22:56;;;;;;;0.50;0.50;;;20.10;71.80;;;;;;6213855;23;20005;-75
2023/05/08 10:25:23;;;;;;;1.38;0.30;;;20.10;71.60;;;;;;6215478;23;20051;-75
2023/05/08 10:28:12;;;;;;;0.77;0.40;;;20.10;71.60;;;;;;6213801;23;20009;-74
2023/05/08 10:30:46;;;;;;;0.88;0.50;;;20.10;71.60;;;;;;6215143;23;20000;-75
2023/05/08 10:33:12;;;;;;;0.52;0.40;;;20.10;71.50;;;;;;6213966;23;20012;-75
2023/05/08 10:35:38;;;;;;;1.20;0.40;;;20.10;71.40;;;;;;6213969;23;20091;-75
2023/05/08 10:38:03;;;;;;;1.17;0.50;;;20.20;71.40;;;;;;6215294;23;20039;-74
2023/05/08 10:40:29;;;;;;;0.65;0.40;;;20.20;71.20;;;;;;6188738;23;20000;-76
2023/05/08 10:42:55;;;;;;;1.55;0.40;;;20.20;71.20;;;;;;6215437;23;20004;-76
2023/05/08 10:45:21;;;;;;;0.40;0.40;;;20.20;71.20;;;;;;6213717;23;20500;-76
2023/05/08 10:47:58;;;;;;;0.40;0.38;;;20.20;71.20;;;;;;6213994;23;20000;-76
2023/05/08 10:51:06;;;;;;;0.45;0.30;;;20.20;71.10;;;;;;6215088;23;20001;-75
2023/05/08 10:53:39;;;;;;;0.40;0.30;;;20.20;71.00;;;;;;6094101;23;20013;-75
2023/05/08 10:56:05;;;;;;;0.28;0.25;;;20.20;71.00;;;;;;6070237;23;20344;-75
2023/05/08 10:58:32;;;;;;;0.50;0.43;;;20.30;71.10;;;;;;6070092;23;20006;-74
2023/05/08 11:00:58;;;;;;;0.38;0.38;;;20.30;71.00;;;;;;6072262;23;20009;-74
2023/05/08 11:03:24;;;;;;;1.05;0.50;;;20.30;70.90;;;;;;6095922;23;20081;-73
2023/05/08 11:05:51;;;;;;;0.82;0.73;;;20.30;70.90;;;;;;6072140;23;20088;-74
2023/05/08 11:08:17;;;;;;;1.02;0.55;;;20.30;70.70;;;;;;6072103;23;20443;-74
2023/05/08 11:10:52;;;;;;;0.45;0.20;;;20.30;70.70;;;;;;6072131;23;20050;-73
2023/05/08 11:13:18;;;;;;;0.90;0.43;;;20.40;70.80;;;;;;6073416;23;20061;-75
2023/05/08 11:15:48;;;;;;;0.30;0.30;;;20.40;70.70;;;;;;6072323;23;20010;-75
2023/05/08 11:18:15;;;;;;;1.13;0.40;;;20.40;70.80;;;;;;6071702;23;20447;-75
2023/05/08 11:20:55;;;;;;;1.58;0.40;;;20.40;70.70;;;;;;6095921;23;20009;-75
2023/05/08 11:23:30;;;;;;;0.40;0.40;;;20.40;70.60;;;;;;6095978;23;20320;-75
2023/05/08 11:26:15;;;;;;;0.30;0.30;;;20.50;70.50;;;;;;6095665;23;20072;-75
2023/05/08 11:28:53;;;;;;;0.32;0.30;;;20.50;70.40;;;;;;6071689;23;20011;-74
2023/05/08 11:31:18;;;;;;;1.30;0.50;;;20.50;70.40;;;;;;6190528;23;20011;-75
2023/05/08 11:33:44;;;;;;;0.40;0.40;;;20.50;70.30;;;;;;6215518;23;20001;-74
2023/05/08 11:36:16;;;;;;;0.50;0.25;;;20.50;70.40;;;;;;6190380;23;20099;-75
2023/05/08 11:38:42;;;;;;;2.50;0.52;;;20.50;70.40;;;;;;6217311;23;20011;-74
2023/05/08 11:41:08;;;;;;;0.50;0.50;;;20.60;70.40;;;;;;6215311;23;19996;-74
2023/05/08 11:43:36;;;;;;;1.15;0.57;;;20.60;70.40;;;;;;6216633;23;20059;-74
2023/05/08 11:46:07;;;;;;;0.57;0.45;;;20.60;70.20;;;;;;6216666;23;20004;-75
2023/05/08 11:48:33;;;;;;;1.05;0.50;;;20.60;70.20;;;;;;6214542;23;20471;-74
2023/05/08 11:50:59;;;;;;;0.63;0.40;;;20.60;70.20;;;;;;6215393;23;20001;-74
2023/05/08 11:53:25;;;;;;;0.30;0.30;;;20.60;70.10;;;;;;6216668;23;20012;-74
2023/05/08 11:55:54;;;;;;;0.88;0.40;;;20.60;70.10;;;;;;6216670;23;20011;-74
2023/05/08 11:58:20;;;;;;;0.40;0.40;;;20.60;70.10;;;;;;6216619;23;20004;-74
2023/05/08 12:00:46;;;;;;;0.45;0.45;;;20.60;70.10;;;;;;6216606;23;20000;-75
2023/05/08 12:03:12;;;;;;;0.30;0.30;;;20.60;70.20;;;;;;6215033;23;19997;-77
2023/05/08 12:05:38;;;;;;;0.47;0.47;;;20.60;70.30;;;;;;6216470;23;20016;-77
2023/05/08 12:08:07;;;;;;;0.30;0.30;;;20.60;70.40;;;;;;6215240;23;20476;-77
2023/05/08 12:10:58;;;;;;;0.35;0.35;;;20.70;70.30;;;;;;6188871;23;20337;-75
2023/05/08 12:13:27;;;;;;;0.63;0.40;;;20.50;70.50;;;;;;6216342;23;20475;-67
2023/05/08 12:15:57;;;;;;;0.93;0.32;;;20.50;70.70;;;;;;6213770;23;20437;-68
2023/05/08 12:18:24;;;;;;;0.85;0.50;;;20.50;71.00;;;;;;6189912;23;20024;-68
2023/05/08 12:20:53;;;;;;;0.40;0.30;;;20.40;71.10;;;;;;6215684;23;20007;-68
2023/05/08 12:23:18;;;;;;;0.75;0.40;;;20.40;71.20;;;;;;6215747;23;20004;-68
2023/05/08 12:25:44;;;;;;;0.60;0.40;;;20.40;71.30;;;;;;6213844;23;20392;-69
2023/05/08 12:28:10;;;;;;;0.40;0.40;;;20.30;71.40;;;;;;6215646;23;20448;-68
2023/05/08 12:30:36;;;;;;;0.70;0.38;;;20.30;71.40;;;;;;6213814;23;20008;-68
2023/05/08 12:33:03;;;;;;;0.30;0.30;;;20.30;71.60;;;;;;6214202;23;20001;-68
2023/05/08 12:35:29;;;;;;;1.50;0.50;;;20.20;71.60;;;;;;6214066;23;20005;-68
2023/05/08 12:37:59;;;;;;;0.60;0.60;;;20.20;71.70;;;;;;6213915;23;20086;-68
2023/05/08 12:40:26;;;;;;;1.95;0.50;;;20.20;71.80;;;;;;6189728;23;19997;-68
2023/05/08 12:42:52;;;;;;;0.93;0.50;;;20.20;72.80;;;;;;6215594;23;20072;-68
2023/05/08 12:45:23;;;;;;;0.57;0.52;;;20.20;71.90;;;;;;6213918;23;20028;-68
2023/05/08 12:47:49;;;;;;;0.40;0.40;;;20.20;71.90;;;;;;6213908;23;20437;-68
2023/05/08 12:50:15;;;;;;;1.05;0.40;;;20.20;72.10;;;;;;6213914;23;20001;-67
2023/05/08 12:52:41;;;;;;;0.40;0.40;;;20.10;72.10;;;;;;6213934;23;20067;-68
2023/05/08 12:55:22;;;;;;;1.60;0.40;;;20.10;72.30;;;;;;6214449;23;20393;-68